createdAt,value
2019-04-25T00:01:07.751Z,100134.00
2019-04-25T00:03:38.394Z,100141.84
2019-04-25T00:06:07.562Z,100152.19
2019-04-25T00:08:37.265Z,100152.78
2019-04-25T00:11:06.233Z,100154.95
2019-04-25T00:13:34.791Z,100156.08
2019-04-25T00:16:03.641Z,100151.31
2019-04-25T00:18:32.221Z,100159.82
2019-04-25T00:21:02.362Z,100155.44
2019-04-25T00:23:31.747Z,100151.79
2019-04-25T00:26:04.637Z,100156.77
2019-04-25T00:28:33.213Z,100153.14
2019-04-25T00:31:02.282Z,100164.25
2019-04-25T00:33:31.476Z,100169.73
2019-04-25T00:36:03.523Z,100157.81
2019-04-25T00:38:31.843Z,100145.81
2019-04-25T00:41:01.727Z,100152.92
2019-04-25T00:43:31.495Z,100168.84
2019-04-25T00:46:01.519Z,100167.78
2019-04-25T00:48:31.700Z,100166.88
2019-04-25T00:51:01.889Z,100170.75
2019-04-25T00:53:30.790Z,100172.28
2019-04-25T00:56:01.434Z,100168.33
2019-04-25T00:58:31.841Z,100172.21
2019-04-25T01:01:07.913Z,100174.76
2019-04-25T01:03:36.892Z,100174.30
2019-04-25T01:06:05.378Z,100173.97
2019-04-25T01:08:33.886Z,100169.09
2019-04-25T01:11:02.393Z,100168.88
2019-04-25T01:13:32.172Z,100175.38
2019-04-25T01:16:03.692Z,100183.64
2019-04-25T01:18:31.389Z,100192.80
2019-04-25T01:21:00.391Z,100191.58
2019-04-25T01:23:28.982Z,100183.16
2019-04-25T01:25:57.505Z,100197.47
2019-04-25T01:28:26.066Z,100189.45
2019-04-25T01:30:55.123Z,100185.11
2019-04-25T01:33:25.658Z,100190.38
2019-04-25T01:35:58.683Z,100181.47
2019-04-25T01:38:31.415Z,100177.97
2019-04-25T01:41:17.446Z,100179.67
2019-04-25T01:43:49.064Z,100177.22
2019-04-25T01:46:17.821Z,100186.27
2019-04-25T01:48:46.392Z,100186.73
2019-04-25T01:51:15.267Z,100198.11
2019-04-25T01:53:44.183Z,100195.75
2019-04-25T01:56:13.609Z,100203.28
2019-04-25T01:58:43.643Z,100202.50
2019-04-25T02:01:14.227Z,100204.76
2019-04-25T02:03:44.243Z,100208.97
2019-04-25T02:06:13.677Z,100219.98
2019-04-25T02:08:44.044Z,100219.08
2019-04-25T02:11:14.551Z,100222.26
2019-04-25T02:13:43.815Z,100202.55
2019-04-25T02:16:14.216Z,100203.03
2019-04-25T02:18:43.552Z,100218.48
2019-04-25T02:21:13.742Z,100227.47
2019-04-25T02:23:44.199Z,100241.72
2019-04-25T02:26:16.760Z,100253.87
2019-04-25T02:28:43.699Z,100272.13
2019-04-25T02:31:17.521Z,100276.44
2019-04-25T02:33:44.274Z,100285.14
2019-04-25T02:36:15.094Z,100296.53
2019-04-25T02:38:44.169Z,100302.86
2019-04-25T02:41:14.790Z,100304.91
2019-04-25T02:43:45.115Z,100306.53
2019-04-25T02:46:15.344Z,100310.75
2019-04-25T02:48:51.392Z,100309.86
2019-04-25T02:51:24.155Z,100312.05
2019-04-25T02:53:53.781Z,100318.06
2019-04-25T02:56:33.236Z,100325.84
2019-04-25T02:58:54.271Z,100321.00
2019-04-25T03:01:26.123Z,100322.20
2019-04-25T03:03:54.544Z,100321.86
2019-04-25T03:06:25.038Z,100329.66
2019-04-25T03:08:54.392Z,100326.48
2019-04-25T03:11:24.497Z,100321.22
2019-04-25T03:13:54.593Z,100321.33
2019-04-25T03:16:25.099Z,100328.26
2019-04-25T03:18:55.121Z,100324.72
2019-04-25T03:21:25.396Z,100325.19
2019-04-25T03:23:54.943Z,100332.50
2019-04-25T03:26:23.654Z,100324.29
2019-04-25T03:28:53.760Z,100326.73
2019-04-25T03:31:26.755Z,100335.67
2019-04-25T03:33:55.534Z,100335.16
2019-04-25T03:36:23.839Z,100342.05
2019-04-25T03:38:54.075Z,100342.16
2019-04-25T03:41:24.437Z,100343.62
2019-04-25T03:43:54.180Z,100344.59
2019-04-25T03:46:23.329Z,100352.46
2019-04-25T03:48:53.843Z,100347.77
2019-04-25T03:51:23.865Z,100357.98
2019-04-25T03:53:53.558Z,100361.64
2019-04-25T03:56:22.242Z,100376.66
2019-04-25T03:58:50.699Z,100384.90
2019-04-25T04:01:19.286Z,100389.29
2019-04-25T04:03:47.727Z,100394.46
2019-04-25T04:06:16.226Z,100404.36
2019-04-25T04:08:44.726Z,100413.81
2019-04-25T04:11:14.538Z,100412.37
2019-04-25T04:13:44.021Z,100426.71
2019-04-25T04:16:15.609Z,100435.12
2019-04-25T04:18:45.802Z,100437.44
2019-04-25T04:21:33.254Z,100442.38
2019-04-25T04:24:13.839Z,100438.23
2019-04-25T04:26:43.124Z,100443.52
2019-04-25T04:29:12.441Z,100447.58
2019-04-25T04:31:43.144Z,100452.98
2019-04-25T04:34:14.107Z,100466.63
2019-04-25T04:36:43.657Z,100464.91
2019-04-25T04:39:14.202Z,100466.28
2019-04-25T04:41:43.651Z,100471.95
2019-04-25T04:44:12.260Z,100471.78
2019-04-25T04:46:43.898Z,100474.89
2019-04-25T04:49:14.186Z,100478.23
2019-04-25T04:51:44.320Z,100490.15
2019-04-25T04:54:13.557Z,100493.84
2019-04-25T04:56:43.844Z,100490.14
2019-04-25T04:59:14.291Z,100493.67
2019-04-25T05:01:47.141Z,100501.59
2019-04-25T05:04:17.267Z,100503.91
2019-04-25T05:06:47.370Z,100521.19
2019-04-25T05:09:17.795Z,100524.32
2019-04-25T05:11:46.529Z,100525.86
2019-04-25T05:14:16.170Z,100532.33
2019-04-25T05:16:44.760Z,100537.55
2019-04-25T05:19:15.303Z,100542.05
2019-04-25T05:21:45.503Z,100552.52
2019-04-25T05:24:16.006Z,100558.84
2019-04-25T05:26:44.102Z,100560.20
2019-04-25T05:29:16.178Z,100557.33
2019-04-25T05:31:45.590Z,100566.99
2019-04-25T05:34:16.566Z,100563.23
2019-04-25T05:36:44.607Z,100574.84
2019-04-25T05:39:16.359Z,100581.92
2019-04-25T05:41:50.808Z,100583.79
2019-04-25T05:44:19.519Z,100583.78
2019-04-25T05:46:48.077Z,100586.63
2019-04-25T05:49:17.189Z,100583.71
2019-04-25T05:51:45.856Z,100594.03
2019-04-25T05:54:14.359Z,100597.77
2019-04-25T05:56:43.778Z,100596.70
2019-04-25T05:59:13.422Z,100607.90
2019-04-25T06:01:43.458Z,100614.08
2019-04-25T06:04:13.578Z,100620.12
2019-04-25T06:06:42.187Z,100623.95
2019-04-25T06:09:18.027Z,100626.41
2019-04-25T06:11:56.700Z,100626.80
2019-04-25T06:14:26.220Z,100628.95
2019-04-25T06:16:56.526Z,100621.34
2019-04-25T06:19:39.093Z,100636.13
2019-04-25T06:22:09.253Z,100634.53
2019-04-25T06:24:45.087Z,100639.83
2019-04-25T06:27:15.299Z,100647.45
2019-04-25T06:29:57.376Z,100646.36
2019-04-25T06:32:15.786Z,100649.43
2019-04-25T06:34:44.533Z,100653.41
2019-04-25T06:37:13.925Z,100646.85
2019-04-25T06:39:44.265Z,100642.70
2019-04-25T06:42:13.809Z,100645.20
2019-04-25T06:44:47.200Z,100646.75
2019-04-25T06:47:21.190Z,100652.52
2019-04-25T06:49:49.910Z,100653.41
2019-04-25T06:52:18.388Z,100656.59
2019-04-25T06:54:46.875Z,100656.17
2019-04-25T06:57:15.311Z,100661.61
2019-04-25T06:59:44.421Z,100657.66
2019-04-25T07:02:13.969Z,100660.61
2019-04-25T07:04:43.481Z,100657.53
2019-04-25T07:07:14.833Z,100668.36
2019-04-25T07:09:43.508Z,100671.89
2019-04-25T07:12:13.463Z,100674.76
2019-04-25T07:14:43.876Z,100684.08
2019-04-25T07:17:14.142Z,100692.16
2019-04-25T07:19:44.048Z,100690.27
2019-04-25T07:22:15.203Z,100693.09
2019-04-25T07:24:43.967Z,100690.70
2019-04-25T07:27:20.091Z,100693.91
2019-04-25T07:29:56.631Z,100696.05
2019-04-25T07:32:34.153Z,100700.15
2019-04-25T07:35:03.622Z,100703.77
2019-04-25T07:37:36.129Z,100707.73
2019-04-25T07:40:04.105Z,100706.12
2019-04-25T07:42:34.261Z,100708.69
2019-04-25T07:45:04.198Z,100707.78
2019-04-25T07:47:34.872Z,100712.34
2019-04-25T07:50:04.031Z,100717.82
2019-04-25T07:52:33.578Z,100712.23
2019-04-25T07:55:03.785Z,100717.12
2019-04-25T07:57:33.519Z,100713.93
2019-04-25T08:00:03.471Z,100712.92
2019-04-25T08:02:34.145Z,100718.09
2019-04-25T08:05:05.492Z,100715.53
2019-04-25T08:07:34.991Z,100718.00
2019-04-25T08:10:07.014Z,100716.73
2019-04-25T08:12:35.761Z,100721.16
2019-04-25T08:15:08.218Z,100720.30
2019-04-25T08:17:47.044Z,100725.14
2019-04-25T08:20:16.694Z,100724.63
2019-04-25T08:22:55.687Z,100726.02
2019-04-25T08:25:15.995Z,100727.55
2019-04-25T08:27:45.096Z,100737.66
2019-04-25T08:30:14.106Z,100736.53
2019-04-25T08:32:44.075Z,100738.45
2019-04-25T08:35:13.949Z,100736.52
2019-04-25T08:37:44.095Z,100742.05
2019-04-25T08:40:13.673Z,100752.80
2019-04-25T08:42:44.037Z,100747.86
2019-04-25T08:45:13.400Z,100748.27
2019-04-25T08:47:43.812Z,100755.82
2019-04-25T08:50:26.391Z,100747.92
2019-04-25T08:52:44.423Z,100758.70
2019-04-25T08:55:31.497Z,100757.61
2019-04-25T08:58:20.990Z,100759.81
2019-04-25T09:01:09.190Z,100766.33
2019-04-25T09:03:57.214Z,100764.08
2019-04-25T09:06:25.778Z,100763.11
2019-04-25T09:08:54.263Z,100766.03
2019-04-25T09:11:24.386Z,100756.98
2019-04-25T09:13:53.757Z,100749.08
2019-04-25T09:16:23.961Z,100749.02
2019-04-25T09:18:53.928Z,100749.70
2019-04-25T09:21:23.814Z,100754.77
2019-04-25T09:23:53.574Z,100759.27
2019-04-25T09:26:24.030Z,100760.97
2019-04-25T09:28:53.652Z,100750.98
2019-04-25T09:31:23.577Z,100758.80
2019-04-25T09:33:54.212Z,100761.12
2019-04-25T09:36:24.065Z,100760.00
2019-04-25T09:38:54.300Z,100755.73
2019-04-25T09:41:23.658Z,100755.80
2019-04-25T09:43:54.987Z,100752.27
2019-04-25T09:46:25.403Z,100757.82
2019-04-25T09:49:01.684Z,100752.06
2019-04-25T09:51:35.901Z,100744.77
2019-04-25T09:54:09.091Z,100745.11
2019-04-25T09:56:46.018Z,100743.77
2019-04-25T09:59:27.294Z,100738.50
2019-04-25T10:01:49.690Z,100741.48
2019-04-25T10:04:18.217Z,100729.83
2019-04-25T10:06:47.576Z,100734.78
2019-04-25T10:09:16.398Z,100736.94
2019-04-25T10:11:46.400Z,100729.32
2019-04-25T10:14:24.532Z,100734.56
2019-04-25T10:16:53.875Z,100731.94
2019-04-25T10:19:23.551Z,100728.78
2019-04-25T10:21:53.890Z,100727.19
2019-04-25T10:24:22.338Z,100729.89
2019-04-25T10:26:51.088Z,100726.73
2019-04-25T10:29:19.643Z,100722.53
2019-04-25T10:31:49.191Z,100717.09
2019-04-25T10:34:18.124Z,100714.45
2019-04-25T10:36:46.857Z,100714.45
2019-04-25T10:39:15.335Z,100716.97
2019-04-25T10:41:46.183Z,100711.63
2019-04-25T10:44:14.242Z,100712.64
2019-04-25T10:46:45.679Z,100715.13
2019-04-25T10:49:14.546Z,100711.73
2019-04-25T10:51:44.680Z,100715.45
2019-04-25T10:54:14.577Z,100718.79
2019-04-25T10:56:45.722Z,100720.39
2019-04-25T10:59:14.462Z,100715.27
2019-04-25T11:01:45.739Z,100713.38
2019-04-25T11:04:15.209Z,100714.55
2019-04-25T11:06:45.413Z,100711.54
2019-04-25T11:09:18.045Z,100707.38
2019-04-25T11:11:46.624Z,100707.73
2019-04-25T11:14:15.604Z,100706.03
2019-04-25T11:16:45.546Z,100700.19
2019-04-25T11:19:15.339Z,100701.42
2019-04-25T11:21:45.181Z,100711.71
2019-04-25T11:24:14.380Z,100716.36
2019-04-25T11:26:47.087Z,100711.71
2019-04-25T11:29:14.952Z,100701.05
2019-04-25T11:31:46.182Z,100705.92
2019-04-25T11:34:16.810Z,100717.75
2019-04-25T11:36:45.568Z,100704.78
2019-04-25T11:39:33.303Z,100698.29
2019-04-25T11:42:02.622Z,100699.17
2019-04-25T11:44:31.097Z,100698.98
2019-04-25T11:46:59.625Z,100688.80
2019-04-25T11:49:29.422Z,100696.72
2019-04-25T11:51:57.943Z,100691.13
2019-04-25T11:54:26.437Z,100691.64
2019-04-25T11:56:56.475Z,100689.63
2019-04-25T11:59:25.170Z,100692.36
2019-04-25T12:01:54.795Z,100694.20
2019-04-25T12:04:24.020Z,100700.78
2019-04-25T12:06:53.186Z,100693.28
2019-04-25T12:09:23.951Z,100684.77
2019-04-25T12:11:54.289Z,100686.64
2019-04-25T12:14:23.574Z,100689.89
2019-04-25T12:16:53.230Z,100685.70
2019-04-25T12:19:33.127Z,100678.69
2019-04-25T12:21:53.828Z,100691.17
2019-04-25T12:24:23.897Z,100689.14
2019-04-25T12:26:54.834Z,100699.98
2019-04-25T12:29:24.415Z,100699.98
2019-04-25T12:31:54.806Z,100678.41
2019-04-25T12:34:24.285Z,100678.41
2019-04-25T12:36:54.432Z,100692.69
2019-04-25T12:39:24.303Z,100711.15
2019-04-25T12:41:54.429Z,100703.33
2019-04-25T12:44:33.529Z,100703.33
2019-04-25T12:47:09.448Z,100720.27
2019-04-25T12:49:38.205Z,100720.27
2019-04-25T12:52:06.694Z,100714.34
2019-04-25T12:54:35.207Z,100713.67
2019-04-25T12:57:05.541Z,100707.20
2019-04-25T12:59:34.240Z,100711.55
2019-04-25T13:02:04.471Z,100712.75
2019-04-25T13:04:34.878Z,100706.42
2019-04-25T13:07:04.082Z,100706.41
2019-04-25T13:09:34.010Z,100701.28
2019-04-25T13:12:04.377Z,100689.58
2019-04-25T13:14:33.171Z,100685.05
2019-04-25T13:17:01.669Z,100686.25
2019-04-25T13:19:30.191Z,100685.58
2019-04-25T13:21:58.647Z,100685.58
2019-04-25T13:24:27.121Z,100678.66
2019-04-25T13:26:57.213Z,100680.13
2019-04-25T13:29:43.319Z,100679.55
2019-04-25T13:32:29.631Z,100676.00
2019-04-25T13:34:59.828Z,100678.02
2019-04-25T13:37:28.312Z,100673.99
2019-04-25T13:39:58.112Z,100670.51
2019-04-25T13:42:26.810Z,100665.84
2019-04-25T13:44:56.598Z,100659.52
2019-04-25T13:47:28.267Z,100658.09
2019-04-25T13:49:55.528Z,100661.41
2019-04-25T13:52:25.034Z,100658.97
2019-04-25T13:54:53.846Z,100655.85
2019-04-25T13:57:23.482Z,100653.09
2019-04-25T13:59:54.143Z,100652.00
2019-04-25T14:02:23.177Z,100648.27
2019-04-25T14:04:51.672Z,100645.80
2019-04-25T14:07:20.637Z,100651.02
2019-04-25T14:09:50.396Z,100645.48
2019-04-25T14:12:18.934Z,100640.14
2019-04-25T14:14:47.424Z,100632.18
2019-04-25T14:17:33.902Z,100630.67
2019-04-25T14:20:04.347Z,100626.52
2019-04-25T14:22:33.068Z,100636.87
2019-04-25T14:25:01.721Z,100622.97
2019-04-25T14:27:30.555Z,100630.00
2019-04-25T14:29:59.088Z,100631.96
2019-04-25T14:32:28.915Z,100626.35
2019-04-25T14:34:57.757Z,100595.05
2019-04-25T14:37:29.262Z,100590.33
2019-04-25T14:39:56.461Z,100588.47
2019-04-25T14:42:25.004Z,100582.03
2019-04-25T14:44:53.501Z,100576.10
2019-04-25T14:47:22.292Z,100574.78
2019-04-25T14:49:51.619Z,100578.85
2019-04-25T14:52:20.133Z,100575.73
2019-04-25T14:54:52.982Z,100572.64
2019-04-25T14:57:24.125Z,100565.25
2019-04-25T14:59:53.071Z,100563.84
2019-04-25T15:02:23.165Z,100561.48
2019-04-25T15:04:51.805Z,100560.69
2019-04-25T15:07:20.266Z,100565.87
2019-04-25T15:09:48.773Z,100566.87
2019-04-25T15:12:17.888Z,100560.64
2019-04-25T15:14:46.583Z,100557.27
2019-04-25T15:17:15.300Z,100556.06
2019-04-25T15:19:43.872Z,100555.66
2019-04-25T15:22:12.890Z,100543.00
2019-04-25T15:24:41.389Z,100548.81
2019-04-25T15:27:09.852Z,100544.00
2019-04-25T15:29:38.537Z,100537.38
2019-04-25T15:32:08.650Z,100539.40
2019-04-25T15:34:38.832Z,100551.66
2019-04-25T15:37:11.636Z,100536.18
2019-04-25T15:39:41.869Z,100545.20
2019-04-25T15:42:28.147Z,100537.19
2019-04-25T15:45:04.237Z,100534.16
2019-04-25T15:47:34.038Z,100534.70
2019-04-25T15:50:02.665Z,100532.17
2019-04-25T15:52:31.510Z,100522.13
2019-04-25T15:55:07.470Z,100525.92
2019-04-25T15:57:32.557Z,100525.48
2019-04-25T16:00:01.021Z,100524.52
2019-04-25T16:02:30.240Z,100522.33
2019-04-25T16:04:58.848Z,100519.04
2019-04-25T16:07:27.367Z,100513.81
2019-04-25T16:09:55.863Z,100513.03
2019-04-25T16:12:24.546Z,100516.65
2019-04-25T16:14:53.032Z,100512.20
2019-04-25T16:17:21.517Z,100520.23
2019-04-25T16:19:50.006Z,100516.59
2019-04-25T16:22:18.520Z,100511.19
2019-04-25T16:24:47.295Z,100507.99
2019-04-25T16:27:16.003Z,100513.30
2019-04-25T16:29:44.442Z,100505.30
2019-04-25T16:32:20.451Z,100508.28
2019-04-25T16:34:44.814Z,100508.73
2019-04-25T16:37:13.817Z,100507.75
2019-04-25T16:39:43.245Z,100511.72
2019-04-25T16:42:12.544Z,100510.03
2019-04-25T16:44:41.367Z,100505.02
2019-04-25T16:47:10.159Z,100453.32
2019-04-25T16:49:39.145Z,100507.89
2019-04-25T16:52:09.405Z,100502.50
2019-04-25T16:54:38.105Z,100500.16
2019-04-25T16:57:06.854Z,100498.09
2019-04-25T16:59:35.565Z,100497.95
2019-04-25T17:02:04.440Z,100499.92
2019-04-25T17:04:33.271Z,100494.85
2019-04-25T17:07:01.873Z,100498.01
2019-04-25T17:09:30.581Z,100498.50
2019-04-25T17:11:59.424Z,100497.13
2019-04-25T17:14:39.495Z,100496.59
2019-04-25T17:17:12.625Z,100496.50
2019-04-25T17:19:52.052Z,100499.69
2019-04-25T17:22:21.049Z,100493.14
2019-04-25T17:24:49.506Z,100493.36
2019-04-25T17:27:18.361Z,100501.17
2019-04-25T17:29:46.932Z,100496.24
2019-04-25T17:32:46.772Z,100494.03
2019-04-25T17:35:05.382Z,100500.67
2019-04-25T17:37:36.276Z,100498.44
2019-04-25T17:40:13.276Z,100495.98
2019-04-25T17:42:41.744Z,100494.48
2019-04-25T17:45:12.478Z,100495.72
2019-04-25T17:47:52.359Z,100492.13
2019-04-25T17:50:11.531Z,100501.03
2019-04-25T17:52:40.645Z,100490.41
2019-04-25T17:55:09.752Z,100489.52
2019-04-25T17:57:38.430Z,100489.95
2019-04-25T18:00:09.406Z,100488.69
2019-04-25T18:02:39.141Z,100492.59
2019-04-25T18:05:07.767Z,100496.27
2019-04-25T18:07:36.477Z,100490.10
2019-04-25T18:10:06.703Z,100488.19
2019-04-25T18:12:35.528Z,100491.09
2019-04-25T18:15:07.051Z,100493.05
2019-04-25T18:17:35.782Z,100487.18
2019-04-25T18:20:08.023Z,100482.84
2019-04-25T18:22:50.100Z,100484.61
2019-04-25T18:25:20.318Z,100490.61
2019-04-25T18:28:05.736Z,100486.67
2019-04-25T18:30:35.626Z,100488.41
2019-04-25T18:33:18.196Z,100489.66
2019-04-25T18:35:48.360Z,100488.45
2019-04-25T18:38:21.095Z,100488.97
2019-04-25T18:40:54.206Z,100487.88
2019-04-25T18:43:24.468Z,100487.56
2019-04-25T18:45:54.865Z,100490.27
2019-04-25T18:48:23.374Z,100489.52
2019-04-25T18:50:51.891Z,100487.13
2019-04-25T18:53:39.198Z,100484.63
2019-04-25T18:56:18.421Z,100483.04
2019-04-25T18:59:05.066Z,100487.02
2019-04-25T19:01:35.239Z,100490.72
2019-04-25T19:04:17.707Z,100487.17
2019-04-25T19:06:55.129Z,100487.53
2019-04-25T19:09:16.765Z,100486.39
2019-04-25T19:11:45.344Z,100488.09
2019-04-25T19:14:13.853Z,100485.89
2019-04-25T19:16:43.017Z,100488.69
2019-04-25T19:19:11.534Z,100485.73
2019-04-25T19:21:40.706Z,100484.24
2019-04-25T19:24:10.164Z,100485.77
2019-04-25T19:26:40.689Z,100483.77
2019-04-25T19:29:08.893Z,100484.95
2019-04-25T19:31:37.415Z,100486.34
2019-04-25T19:34:05.967Z,100487.73
2019-04-25T19:36:34.559Z,100485.52
2019-04-25T19:39:04.643Z,100487.38
2019-04-25T19:41:37.686Z,100490.02
2019-04-25T19:44:08.017Z,100489.81
2019-04-25T19:46:38.446Z,100488.75
2019-04-25T19:49:07.767Z,100492.91
2019-04-25T19:51:36.601Z,100485.73
2019-04-25T19:54:06.236Z,100488.26
2019-04-25T19:56:35.228Z,100493.03
2019-04-25T19:59:04.031Z,100490.38
2019-04-25T20:01:32.859Z,100495.44
2019-04-25T20:04:10.100Z,100493.50
2019-04-25T20:06:56.600Z,100495.59
2019-04-25T20:09:43.814Z,100488.17
2019-04-25T20:12:13.715Z,100489.20
2019-04-25T20:14:43.028Z,100488.30
2019-04-25T20:17:12.947Z,100492.36
2019-04-25T20:19:41.461Z,100491.77
2019-04-25T20:22:09.994Z,100486.56
2019-04-25T20:24:38.503Z,100488.30
2019-04-25T20:27:06.976Z,100486.56
2019-04-25T20:29:35.478Z,100483.91
2019-04-25T20:32:06.956Z,100489.80
2019-04-25T20:34:34.334Z,100480.42
2019-04-25T20:37:03.250Z,100485.05
2019-04-25T20:39:31.743Z,100472.47
2019-04-25T20:42:00.375Z,100474.87
2019-04-25T20:44:28.879Z,100480.42
2019-04-25T20:46:57.871Z,100476.16
2019-04-25T20:49:26.412Z,100476.02
2019-04-25T20:51:54.981Z,100479.74
2019-04-25T20:54:23.618Z,100470.95
2019-04-25T20:56:52.862Z,100470.03
2019-04-25T20:59:21.600Z,100465.62
2019-04-25T21:01:50.117Z,100466.34
2019-04-25T21:04:36.671Z,100458.70
2019-04-25T21:07:05.387Z,100459.74
2019-04-25T21:09:33.839Z,100456.50
2019-04-25T21:12:03.276Z,100457.67
2019-04-25T21:14:42.932Z,100454.91
2019-04-25T21:17:13.073Z,100460.31
2019-04-25T21:19:48.656Z,100457.39
2019-04-25T21:22:16.313Z,100447.14
2019-04-25T21:24:44.749Z,100448.40
2019-04-25T21:27:13.350Z,100448.73
2019-04-25T21:29:41.872Z,100460.53
2019-04-25T21:32:10.559Z,100447.58
2019-04-25T21:34:39.018Z,100443.94
2019-04-25T21:37:09.752Z,100447.86
2019-04-25T21:39:44.162Z,100444.03
2019-04-25T21:42:14.588Z,100440.65
2019-04-25T21:44:43.333Z,100438.11
2019-04-25T21:47:11.836Z,100436.25
2019-04-25T21:49:40.694Z,100437.11
2019-04-25T21:52:09.176Z,100434.42
2019-04-25T21:54:38.151Z,100442.55
2019-04-25T21:57:06.942Z,100432.37
2019-04-25T21:59:35.524Z,100426.59
2019-04-25T22:02:04.895Z,100433.37
2019-04-25T22:04:39.771Z,100427.50
2019-04-25T22:07:04.049Z,100425.88
2019-04-25T22:09:33.654Z,100422.90
2019-04-25T22:12:03.267Z,100422.53
2019-04-25T22:14:31.852Z,100420.75
2019-04-25T22:17:00.918Z,100421.95
2019-04-25T22:19:30.348Z,100419.38
2019-04-25T22:21:59.099Z,100424.81
2019-04-25T22:24:27.613Z,100426.34
2019-04-25T22:26:58.770Z,100431.29
2019-04-25T22:29:27.551Z,100424.23
2019-04-25T22:32:07.487Z,100418.46
2019-04-25T22:34:54.043Z,100423.05
2019-04-25T22:37:22.670Z,100424.02
2019-04-25T22:39:51.416Z,100424.39
2019-04-25T22:42:19.958Z,100415.39
2019-04-25T22:44:48.634Z,100417.59
2019-04-25T22:47:17.687Z,100413.97
2019-04-25T22:49:46.361Z,100419.98
2019-04-25T22:52:15.357Z,100417.30
2019-04-25T22:54:44.090Z,100417.20
2019-04-25T22:57:13.014Z,100412.36
2019-04-25T22:59:41.913Z,100416.51
2019-04-25T23:02:12.058Z,100417.74
2019-04-25T23:05:04.298Z,100409.21
2019-04-25T23:07:21.627Z,100411.88
2019-04-25T23:09:51.203Z,100410.02
2019-04-25T23:12:20.248Z,100401.83
2019-04-25T23:14:48.758Z,100393.61
2019-04-25T23:17:17.242Z,100389.55
2019-04-25T23:19:46.107Z,100397.06
2019-04-25T23:22:14.666Z,100382.39
2019-04-25T23:24:44.766Z,100393.94
2019-04-25T23:27:14.884Z,100380.56
2019-04-25T23:29:43.315Z,100385.28
2019-04-25T23:32:12.439Z,100387.23
2019-04-25T23:34:41.041Z,100381.94
2019-04-25T23:37:09.514Z,100384.38
2019-04-25T23:39:38.233Z,100383.19
2019-04-25T23:42:07.301Z,100384.24
2019-04-25T23:44:36.180Z,100373.27
2019-04-25T23:47:05.948Z,100373.15
2019-04-25T23:49:34.862Z,100378.91
2019-04-25T23:52:03.651Z,100370.04
2019-04-25T23:54:32.587Z,100373.27
2019-04-25T23:57:01.363Z,100366.70
2019-04-25T23:59:29.814Z,100362.06
